createdAt,value
2019-04-13T00:00:47.370Z,5.90
2019-04-13T00:03:18.506Z,5.90
2019-04-13T00:06:10.198Z,5.90
2019-04-13T00:08:40.823Z,5.90
2019-04-13T00:11:35.973Z,5.90
2019-04-13T00:14:06.112Z,5.90
2019-04-13T00:16:37.012Z,5.90
2019-04-13T00:19:08.204Z,5.90
2019-04-13T00:21:39.350Z,5.90
2019-04-13T00:24:10.182Z,5.90
2019-04-13T00:26:40.829Z,5.90
2019-04-13T00:29:11.155Z,5.90
2019-04-13T00:31:42.103Z,5.90
2019-04-13T00:34:12.414Z,5.90
2019-04-13T00:36:42.149Z,5.90
2019-04-13T00:39:12.675Z,5.90
2019-04-13T00:41:43.389Z,5.90
2019-04-13T00:44:14.067Z,5.80
2019-04-13T00:46:44.633Z,5.80
2019-04-13T00:49:14.800Z,5.80
2019-04-13T00:51:45.757Z,5.80
2019-04-13T00:54:15.880Z,5.80
2019-04-13T00:56:47.229Z,5.80
2019-04-13T00:59:17.768Z,5.80
2019-04-13T01:01:48.303Z,5.80
2019-04-13T01:04:19.035Z,5.80
2019-04-13T01:06:49.669Z,5.80
2019-04-13T01:09:20.513Z,5.80
2019-04-13T01:11:51.867Z,5.80
2019-04-13T01:14:21.917Z,5.80
2019-04-13T01:16:52.526Z,5.80
2019-04-13T01:19:23.668Z,5.80
2019-04-13T01:21:54.907Z,5.70
2019-04-13T01:24:25.557Z,5.70
2019-04-13T01:26:56.301Z,5.70
2019-04-13T01:29:27.421Z,5.70
2019-04-13T01:31:58.129Z,5.70
2019-04-13T01:34:29.331Z,5.60
2019-04-13T01:36:59.405Z,5.60
2019-04-13T01:39:30.001Z,5.60
2019-04-13T01:42:00.931Z,5.60
2019-04-13T01:44:31.239Z,5.60
2019-04-13T01:47:01.991Z,5.60
2019-04-13T01:49:33.154Z,5.60
2019-04-13T01:52:05.509Z,5.50
2019-04-13T01:54:36.094Z,5.50
2019-04-13T01:57:07.000Z,5.50
2019-04-13T01:59:37.547Z,5.50
2019-04-13T02:02:30.380Z,5.50
2019-04-13T02:05:18.936Z,5.50
2019-04-13T02:08:26.136Z,5.50
2019-04-13T02:11:00.453Z,5.40
2019-04-13T02:13:31.458Z,5.40
2019-04-13T02:16:02.651Z,5.30
2019-04-13T02:18:33.594Z,5.30
2019-04-13T02:21:04.262Z,5.30
2019-04-13T02:23:35.687Z,5.30
2019-04-13T02:26:06.422Z,5.20
2019-04-13T02:28:37.162Z,5.20
2019-04-13T02:31:07.217Z,5.20
2019-04-13T02:33:37.795Z,5.20
2019-04-13T02:36:08.151Z,5.20
2019-04-13T02:38:39.099Z,5.20
2019-04-13T02:41:09.631Z,5.20
2019-04-13T02:43:40.114Z,5.20
2019-04-13T02:46:11.027Z,5.20
2019-04-13T02:48:42.455Z,5.20
2019-04-13T02:51:13.401Z,5.20
2019-04-13T02:53:44.547Z,5.20
2019-04-13T02:56:15.283Z,5.20
2019-04-13T02:58:46.222Z,5.20
2019-04-13T03:01:16.084Z,5.10
2019-04-13T03:03:46.940Z,5.10
2019-04-13T03:06:17.820Z,5.10
2019-04-13T03:08:48.970Z,5.10
2019-04-13T03:11:19.505Z,5.10
2019-04-13T03:13:52.709Z,5.10
2019-04-13T03:16:42.316Z,5.10
2019-04-13T03:19:21.025Z,5.10
2019-04-13T03:21:51.740Z,5.10
2019-04-13T03:24:22.688Z,5.10
2019-04-13T03:26:53.631Z,5.10
2019-04-13T03:29:24.762Z,5.10
2019-04-13T03:31:55.323Z,5.10
2019-04-13T03:34:26.456Z,5.10
2019-04-13T03:36:57.404Z,5.10
2019-04-13T03:39:27.394Z,5.10
2019-04-13T03:41:57.657Z,5.00
2019-04-13T03:44:27.984Z,5.00
2019-04-13T03:46:59.138Z,5.00
2019-04-13T03:49:30.256Z,5.00
2019-04-13T03:52:01.015Z,5.00
2019-04-13T03:54:31.753Z,5.00
2019-04-13T03:57:01.815Z,5.00
2019-04-13T03:59:32.819Z,5.00
2019-04-13T04:02:03.359Z,5.00
2019-04-13T04:04:33.840Z,4.90
2019-04-13T04:07:05.444Z,4.90
2019-04-13T04:09:36.097Z,4.90
2019-04-13T04:12:06.913Z,4.90
2019-04-13T04:14:37.421Z,4.90
2019-04-13T04:17:07.990Z,4.90
2019-04-13T04:19:39.385Z,4.90
2019-04-13T04:22:09.799Z,4.90
2019-04-13T04:24:40.433Z,4.90
2019-04-13T04:27:10.481Z,4.90
2019-04-13T04:29:41.008Z,4.80
2019-04-13T04:32:11.800Z,4.90
2019-04-13T04:34:43.149Z,4.80
2019-04-13T04:37:13.895Z,4.90
2019-04-13T04:39:44.523Z,4.90
2019-04-13T04:42:15.101Z,4.90
2019-04-13T04:44:46.105Z,4.80
2019-04-13T04:47:16.848Z,4.80
2019-04-13T04:49:48.193Z,4.90
2019-04-13T04:52:18.521Z,4.90
2019-04-13T04:54:49.267Z,4.90
2019-04-13T04:57:19.802Z,4.90
2019-04-13T04:59:50.813Z,4.90
2019-04-13T05:02:21.275Z,4.90
2019-04-13T05:04:52.629Z,4.90
2019-04-13T05:07:23.362Z,4.90
2019-04-13T05:09:53.957Z,4.90
2019-04-13T05:12:24.429Z,5.00
2019-04-13T05:14:55.584Z,5.00
2019-04-13T05:17:26.312Z,5.00
2019-04-13T05:19:57.484Z,5.00
2019-04-13T05:22:27.934Z,5.00
2019-04-13T05:24:58.944Z,5.10
2019-04-13T05:27:29.719Z,5.10
2019-04-13T05:30:00.424Z,5.10
2019-04-13T05:32:30.742Z,5.20
2019-04-13T05:35:01.298Z,5.20
2019-04-13T05:37:32.402Z,5.20
2019-04-13T05:40:02.588Z,5.30
2019-04-13T05:42:32.877Z,5.30
2019-04-13T05:45:04.024Z,5.40
2019-04-13T05:47:34.289Z,5.40
2019-04-13T05:50:04.982Z,5.50
2019-04-13T05:52:35.425Z,5.50
2019-04-13T05:55:08.215Z,5.50
2019-04-13T05:57:39.548Z,5.60
2019-04-13T06:00:12.151Z,5.60
2019-04-13T06:02:42.470Z,5.70
2019-04-13T06:05:13.620Z,5.70
2019-04-13T06:07:44.346Z,5.70
2019-04-13T06:10:15.502Z,5.70
2019-04-13T06:12:45.625Z,5.70
2019-04-13T06:15:15.966Z,5.70
2019-04-13T06:17:47.040Z,5.80
2019-04-13T06:20:18.047Z,5.80
2019-04-13T06:22:48.784Z,5.90
2019-04-13T06:25:19.923Z,5.90
2019-04-13T06:27:50.810Z,5.90
2019-04-13T06:30:52.592Z,5.80
2019-04-13T06:33:31.066Z,5.90
2019-04-13T06:36:03.234Z,5.90
2019-04-13T06:38:34.572Z,6.00
2019-04-13T06:41:05.734Z,6.00
2019-04-13T06:43:36.470Z,6.10
2019-04-13T06:46:07.820Z,6.00
2019-04-13T06:48:38.326Z,6.00
2019-04-13T06:51:09.502Z,6.00
2019-04-13T06:53:40.642Z,6.00
2019-04-13T06:56:11.585Z,6.10
2019-04-13T06:58:41.894Z,6.10
2019-04-13T07:01:12.870Z,6.10
2019-04-13T07:03:44.011Z,6.20
2019-04-13T07:06:15.165Z,6.20
2019-04-13T07:09:02.509Z,6.30
2019-04-13T07:11:40.820Z,6.40
2019-04-13T07:14:13.074Z,6.50
2019-04-13T07:17:03.164Z,6.50
2019-04-13T07:19:34.532Z,6.60
2019-04-13T07:22:05.664Z,6.70
2019-04-13T07:24:36.823Z,6.70
2019-04-13T07:27:07.385Z,6.60
2019-04-13T07:29:38.506Z,6.70
2019-04-13T07:32:09.001Z,6.70
2019-04-13T07:34:39.361Z,6.70
2019-04-13T07:37:12.173Z,6.80
2019-04-13T07:39:41.663Z,6.80
2019-04-13T07:42:12.811Z,6.80
2019-04-13T07:45:10.986Z,6.90
2019-04-13T07:47:52.177Z,7.10
2019-04-13T07:50:40.195Z,7.30
2019-04-13T07:53:17.196Z,7.40
2019-04-13T07:55:48.075Z,7.60
2019-04-13T07:58:18.681Z,7.70
2019-04-13T08:00:49.635Z,7.90
2019-04-13T08:03:20.308Z,7.90
2019-04-13T08:05:51.077Z,7.90
2019-04-13T08:08:22.196Z,7.90
2019-04-13T08:10:52.471Z,7.70
2019-04-13T08:13:23.524Z,7.70
2019-04-13T08:15:54.459Z,7.80
2019-04-13T08:18:32.161Z,7.90
2019-04-13T08:21:05.629Z,8.00
2019-04-13T08:23:35.423Z,8.10
2019-04-13T08:26:09.010Z,8.10
2019-04-13T08:28:39.410Z,8.10
2019-04-13T08:31:10.780Z,8.00
2019-04-13T08:33:41.468Z,8.10
2019-04-13T08:36:11.988Z,8.40
2019-04-13T08:38:57.827Z,8.70
2019-04-13T08:41:20.264Z,8.70
2019-04-13T08:43:47.389Z,8.90
2019-04-13T08:46:18.475Z,9.00
2019-04-13T08:48:49.010Z,9.20
2019-04-13T08:51:19.342Z,9.40
2019-04-13T08:53:49.679Z,9.50
2019-04-13T08:56:20.000Z,9.40
2019-04-13T08:58:52.167Z,9.50
2019-04-13T09:01:22.902Z,9.60
2019-04-13T09:03:53.442Z,9.80
2019-04-13T09:06:23.907Z,10.00
2019-04-13T09:08:54.924Z,10.10
2019-04-13T09:11:26.703Z,10.20
2019-04-13T09:13:58.486Z,10.50
2019-04-13T09:16:31.816Z,10.70
2019-04-13T09:19:39.472Z,10.60
2019-04-13T09:22:22.219Z,10.70
2019-04-13T09:24:54.102Z,11.20
2019-04-13T09:27:25.600Z,12.00
2019-04-13T09:29:56.610Z,12.50
2019-04-13T09:32:28.179Z,12.30
2019-04-13T09:35:00.689Z,12.30
2019-04-13T09:37:32.909Z,12.50
2019-04-13T09:40:03.886Z,12.70
2019-04-13T09:42:35.389Z,12.80
2019-04-13T09:45:06.511Z,12.80
2019-04-13T09:47:36.796Z,13.00
2019-04-13T09:50:07.759Z,13.00
2019-04-13T09:52:38.100Z,12.70
2019-04-13T09:55:08.652Z,12.40
2019-04-13T09:57:39.616Z,12.40
2019-04-13T10:00:10.683Z,12.50
2019-04-13T10:02:42.070Z,12.20
2019-04-13T10:05:12.796Z,11.80
2019-04-13T10:07:45.730Z,11.60
2019-04-13T10:10:15.713Z,11.50
2019-04-13T10:13:08.779Z,11.50
2019-04-13T10:15:53.779Z,11.80
2019-04-13T10:18:30.297Z,12.60
2019-04-13T10:21:01.225Z,13.20
2019-04-13T10:23:31.410Z,13.40
2019-04-13T10:26:02.283Z,13.80
2019-04-13T10:28:36.122Z,13.80
2019-04-13T10:31:06.231Z,13.80
2019-04-13T10:33:36.825Z,13.70
2019-04-13T10:36:07.289Z,13.90
2019-04-13T10:38:37.823Z,14.50
2019-04-13T10:41:09.614Z,14.90
2019-04-13T10:43:40.586Z,14.90
2019-04-13T10:46:28.316Z,15.00
2019-04-13T10:49:21.032Z,14.70
2019-04-13T10:51:59.497Z,14.30
2019-04-13T10:54:30.215Z,14.00
2019-04-13T10:57:00.700Z,13.90
2019-04-13T10:59:31.704Z,13.90
2019-04-13T11:02:02.400Z,14.10
2019-04-13T11:04:32.901Z,14.70
2019-04-13T11:07:04.123Z,15.30
2019-04-13T11:09:34.942Z,15.60
2019-04-13T11:12:06.623Z,15.70
2019-04-13T11:14:37.357Z,15.80
2019-04-13T11:17:09.732Z,15.60
2019-04-13T11:19:40.625Z,15.40
2019-04-13T11:22:12.238Z,15.20
2019-04-13T11:24:42.839Z,15.10
2019-04-13T11:27:14.531Z,15.50
2019-04-13T11:29:44.983Z,16.30
2019-04-13T11:32:15.611Z,16.80
2019-04-13T11:34:45.923Z,16.80
2019-04-13T11:37:16.870Z,16.40
2019-04-13T11:39:47.618Z,16.40
2019-04-13T11:42:54.807Z,17.10
2019-04-13T11:45:53.201Z,17.50
2019-04-13T11:48:41.968Z,17.80
2019-04-13T11:51:31.798Z,17.60
2019-04-13T11:54:03.850Z,16.70
2019-04-13T11:56:36.680Z,15.80
2019-04-13T11:59:05.589Z,15.30
2019-04-13T12:01:55.927Z,15.10
2019-04-13T12:04:42.705Z,15.10
2019-04-13T12:07:27.735Z,15.50
2019-04-13T12:10:15.004Z,15.90
2019-04-13T12:13:05.494Z,15.80
2019-04-13T12:15:54.940Z,15.40
2019-04-13T12:18:56.954Z,14.60
2019-04-13T12:21:42.173Z,13.90
2019-04-13T12:24:17.481Z,13.50
2019-04-13T12:26:48.426Z,13.50
2019-04-13T12:29:18.758Z,13.60
2019-04-13T12:31:49.634Z,13.80
2019-04-13T12:34:24.100Z,14.00
2019-04-13T12:36:54.591Z,14.20
2019-04-13T12:39:27.863Z,14.20
2019-04-13T12:42:05.672Z,14.40
2019-04-13T12:44:37.654Z,14.60
2019-04-13T12:47:10.113Z,14.40
2019-04-13T12:49:41.469Z,14.60
2019-04-13T12:52:12.466Z,14.60
2019-04-13T12:54:43.762Z,14.80
2019-04-13T12:57:16.117Z,15.20
2019-04-13T12:59:45.792Z,15.30
2019-04-13T13:02:53.448Z,15.40
2019-04-13T13:05:26.971Z,15.60
2019-04-13T13:07:58.198Z,16.00
2019-04-13T13:10:29.138Z,16.50
2019-04-13T13:13:00.082Z,16.40
2019-04-13T13:15:31.225Z,16.00
2019-04-13T13:18:01.726Z,15.90
2019-04-13T13:20:31.958Z,16.20
2019-04-13T13:23:02.594Z,16.20
2019-04-13T13:25:33.107Z,16.30
2019-04-13T13:28:03.647Z,16.60
2019-04-13T13:30:33.688Z,16.80
2019-04-13T13:33:04.380Z,16.90
2019-04-13T13:35:35.088Z,16.80
2019-04-13T13:38:05.554Z,16.50
2019-04-13T13:40:36.564Z,16.20
2019-04-13T13:43:07.520Z,15.70
2019-04-13T13:45:40.109Z,15.20
2019-04-13T13:48:10.434Z,14.70
2019-04-13T13:50:40.704Z,14.20
2019-04-13T13:53:11.897Z,13.70
2019-04-13T13:55:42.038Z,13.20
2019-04-13T13:58:41.431Z,12.70
2019-04-13T14:01:28.964Z,12.20
2019-04-13T14:03:59.910Z,11.70
2019-04-13T14:06:30.849Z,11.50
2019-04-13T14:09:01.360Z,11.30
2019-04-13T14:11:36.671Z,11.10
2019-04-13T14:14:06.480Z,10.90
2019-04-13T14:16:37.903Z,10.80
2019-04-13T14:19:08.361Z,10.70
2019-04-13T14:21:39.163Z,10.70
2019-04-13T14:24:10.519Z,10.70
2019-04-13T14:26:41.063Z,10.70
2019-04-13T14:29:11.797Z,10.90
2019-04-13T14:31:42.406Z,11.30
2019-04-13T14:34:13.684Z,11.60
2019-04-13T14:36:44.251Z,11.50
2019-04-13T14:39:14.826Z,11.40
2019-04-13T14:41:45.183Z,11.80
2019-04-13T14:44:17.238Z,12.10
2019-04-13T14:46:48.914Z,12.10
2019-04-13T14:49:20.278Z,12.10
2019-04-13T14:51:52.774Z,12.30
2019-04-13T14:54:22.875Z,12.50
2019-04-13T14:56:55.453Z,12.90
2019-04-13T14:59:25.449Z,13.20
2019-04-13T15:01:56.923Z,13.40
2019-04-13T15:04:28.079Z,13.60
2019-04-13T15:06:59.091Z,13.80
2019-04-13T15:09:29.959Z,14.30
2019-04-13T15:12:01.738Z,14.90
2019-04-13T15:14:32.857Z,15.40
2019-04-13T15:17:06.144Z,15.60
2019-04-13T15:19:41.455Z,15.90
2019-04-13T15:22:10.608Z,16.20
2019-04-13T15:24:41.311Z,16.50
2019-04-13T15:27:11.652Z,16.90
2019-04-13T15:29:41.876Z,17.20
2019-04-13T15:32:15.002Z,17.50
2019-04-13T15:34:46.760Z,17.20
2019-04-13T15:37:17.717Z,16.60
2019-04-13T15:39:49.737Z,15.90
2019-04-13T15:42:24.317Z,15.50
2019-04-13T15:44:55.500Z,15.30
2019-04-13T15:47:28.039Z,15.00
2019-04-13T15:49:58.891Z,14.80
2019-04-13T15:52:30.417Z,14.50
2019-04-13T15:55:02.911Z,14.00
2019-04-13T15:57:35.804Z,13.70
2019-04-13T16:00:09.028Z,13.40
2019-04-13T16:02:41.654Z,13.10
2019-04-13T16:05:14.038Z,12.90
2019-04-13T16:07:45.164Z,12.80
2019-04-13T16:10:42.982Z,12.60
2019-04-13T16:13:17.343Z,12.50
2019-04-13T16:15:49.612Z,12.30
2019-04-13T16:18:21.887Z,12.20
2019-04-13T16:20:53.260Z,12.10
2019-04-13T16:23:24.010Z,11.80
2019-04-13T16:25:55.141Z,11.50
2019-04-13T16:28:39.327Z,11.30
2019-04-13T16:31:18.210Z,11.10
2019-04-13T16:34:07.458Z,10.90
2019-04-13T16:36:48.409Z,10.80
2019-04-13T16:39:23.108Z,10.70
2019-04-13T16:42:02.699Z,10.60
2019-04-13T16:44:31.398Z,10.50
2019-04-13T16:47:08.478Z,10.50
2019-04-13T16:49:50.840Z,10.40
2019-04-13T16:52:50.651Z,10.30
2019-04-13T16:55:26.665Z,10.30
2019-04-13T16:58:17.217Z,10.20
2019-04-13T17:01:01.027Z,10.10
2019-04-13T17:03:40.118Z,10.20
2019-04-13T17:06:11.320Z,10.20
2019-04-13T17:08:41.430Z,10.10
2019-04-13T17:11:12.172Z,10.10
2019-04-13T17:13:43.313Z,10.00
2019-04-13T17:16:14.188Z,10.00
2019-04-13T17:19:03.798Z,9.90
2019-04-13T17:21:43.668Z,9.90
2019-04-13T17:24:40.269Z,9.80
2019-04-13T17:27:42.302Z,9.80
2019-04-13T17:30:31.831Z,9.70
2019-04-13T17:33:14.893Z,9.70
2019-04-13T17:35:48.501Z,9.60
2019-04-13T17:38:18.558Z,9.50
2019-04-13T17:40:59.309Z,9.40
2019-04-13T17:43:49.424Z,9.30
2019-04-13T17:46:42.864Z,9.20
2019-04-13T17:49:42.927Z,9.20
2019-04-13T17:52:32.032Z,9.00
2019-04-13T17:55:16.836Z,8.90
2019-04-13T17:58:06.804Z,8.60
2019-04-13T18:01:02.177Z,8.30
2019-04-13T18:04:08.129Z,8.10
2019-04-13T18:07:07.257Z,7.90
2019-04-13T18:10:00.189Z,7.70
2019-04-13T18:12:54.618Z,7.60
2019-04-13T18:15:32.526Z,7.50
2019-04-13T18:18:06.215Z,7.40
2019-04-13T18:20:36.735Z,7.30
2019-04-13T18:23:08.888Z,7.30
2019-04-13T18:25:45.915Z,7.30
2019-04-13T18:28:12.917Z,7.30
2019-04-13T18:30:45.469Z,7.30
2019-04-13T18:33:17.919Z,7.30
2019-04-13T18:35:49.073Z,7.30
2019-04-13T18:38:21.180Z,7.30
2019-04-13T18:40:52.070Z,7.30
2019-04-13T18:43:27.638Z,7.30
2019-04-13T18:45:56.015Z,7.20
2019-04-13T18:48:27.083Z,7.20
2019-04-13T18:50:58.384Z,7.20
2019-04-13T18:53:29.885Z,7.10
2019-04-13T18:56:01.003Z,7.10
2019-04-13T18:58:31.952Z,7.00
2019-04-13T19:01:03.783Z,7.00
2019-04-13T19:03:34.457Z,7.00
2019-04-13T19:06:05.595Z,7.00
2019-04-13T19:08:36.724Z,7.00
2019-04-13T19:11:07.684Z,7.00
2019-04-13T19:13:38.830Z,7.00
2019-04-13T19:16:08.895Z,7.00
2019-04-13T19:18:39.893Z,7.10
2019-04-13T19:21:10.779Z,7.10
2019-04-13T19:23:41.790Z,7.10
2019-04-13T19:26:12.930Z,7.10
2019-04-13T19:28:43.277Z,7.10
2019-04-13T19:31:13.722Z,7.10
2019-04-13T19:33:44.278Z,7.00
2019-04-13T19:36:14.798Z,7.00
2019-04-13T19:38:45.630Z,7.00
2019-04-13T19:41:16.144Z,6.90
2019-04-13T19:43:47.284Z,6.90
2019-04-13T19:46:18.021Z,6.90
2019-04-13T19:48:48.048Z,6.90
2019-04-13T19:51:21.132Z,6.90
2019-04-13T19:53:56.790Z,6.80
2019-04-13T19:56:27.662Z,6.80
2019-04-13T19:58:58.678Z,6.80
2019-04-13T20:01:31.998Z,6.70
2019-04-13T20:04:02.976Z,6.60
2019-04-13T20:06:35.196Z,6.60
2019-04-13T20:09:09.408Z,6.50
2019-04-13T20:11:41.801Z,6.40
2019-04-13T20:14:15.860Z,6.40
2019-04-13T20:16:45.162Z,6.40
2019-04-13T20:19:15.864Z,6.30
2019-04-13T20:21:46.792Z,6.30
2019-04-13T20:24:17.736Z,6.30
2019-04-13T20:26:49.018Z,6.20
2019-04-13T20:29:20.944Z,6.20
2019-04-13T20:31:53.439Z,6.20
2019-04-13T20:34:24.867Z,6.20
2019-04-13T20:36:56.948Z,6.30
2019-04-13T20:39:28.838Z,6.30
2019-04-13T20:42:06.084Z,6.40
2019-04-13T20:44:32.647Z,6.40
2019-04-13T20:47:04.459Z,6.50
2019-04-13T20:49:35.115Z,6.50
2019-04-13T20:52:05.904Z,6.50
2019-04-13T20:54:38.415Z,6.60
2019-04-13T20:57:08.817Z,6.50
2019-04-13T20:59:40.999Z,6.50
2019-04-13T21:02:13.289Z,6.50
2019-04-13T21:04:45.938Z,6.50
2019-04-13T21:07:18.339Z,6.60
2019-04-13T21:09:49.092Z,6.60
2019-04-13T21:12:20.454Z,6.60
2019-04-13T21:14:52.159Z,6.60
2019-04-13T21:17:24.641Z,6.50
2019-04-13T21:19:55.495Z,6.50
2019-04-13T21:22:26.746Z,6.50
2019-04-13T21:24:59.077Z,6.60
2019-04-13T21:27:29.300Z,6.60
2019-04-13T21:30:01.147Z,6.60
2019-04-13T21:32:35.665Z,6.70
2019-04-13T21:35:07.788Z,6.70
2019-04-13T21:37:38.239Z,6.70
2019-04-13T21:40:10.251Z,6.70
2019-04-13T21:42:40.939Z,6.70
2019-04-13T21:45:12.511Z,6.70
2019-04-13T21:47:43.233Z,6.70
2019-04-13T21:50:32.690Z,6.70
2019-04-13T21:53:11.701Z,6.70
2019-04-13T21:55:44.135Z,6.80
2019-04-13T21:58:16.104Z,6.70
2019-04-13T22:01:19.147Z,6.50
2019-04-13T22:03:51.359Z,6.30
2019-04-13T22:06:23.371Z,6.10
2019-04-13T22:08:55.734Z,6.00
2019-04-13T22:11:27.679Z,5.80
2019-04-13T22:14:00.049Z,5.70
2019-04-13T22:16:32.093Z,5.70
2019-04-13T22:19:02.771Z,5.70
2019-04-13T22:21:33.217Z,5.70
2019-04-13T22:24:04.985Z,5.70
2019-04-13T22:26:36.909Z,5.80
2019-04-13T22:29:15.764Z,5.80
2019-04-13T22:31:55.289Z,5.80
2019-04-13T22:34:46.757Z,5.80
2019-04-13T22:37:18.829Z,5.80
2019-04-13T22:39:50.954Z,5.80
2019-04-13T22:42:23.054Z,5.70
2019-04-13T22:44:59.776Z,5.70
2019-04-13T22:47:27.807Z,5.60
2019-04-13T22:50:06.920Z,5.50
2019-04-13T22:53:07.173Z,5.40
2019-04-13T22:55:54.126Z,5.40
2019-04-13T22:58:26.852Z,5.40
2019-04-13T23:01:00.869Z,5.40
2019-04-13T23:03:31.738Z,5.40
2019-04-13T23:06:03.219Z,5.30
2019-04-13T23:08:35.528Z,5.30
2019-04-13T23:11:08.276Z,5.30
2019-04-13T23:13:39.272Z,5.30
2019-04-13T23:16:10.688Z,5.20
2019-04-13T23:18:40.904Z,5.20
2019-04-13T23:21:11.511Z,5.20
2019-04-13T23:23:42.730Z,5.10
2019-04-13T23:26:14.440Z,5.10
2019-04-13T23:28:46.746Z,5.10
2019-04-13T23:31:19.402Z,5.10
2019-04-13T23:33:52.084Z,5.10
2019-04-13T23:36:23.219Z,5.10
2019-04-13T23:38:55.117Z,5.10
2019-04-13T23:41:26.194Z,5.10
2019-04-13T23:43:58.232Z,5.10
2019-04-13T23:46:30.687Z,5.10
2019-04-13T23:49:01.396Z,5.10
2019-04-13T23:51:31.874Z,5.20
2019-04-13T23:54:02.452Z,5.20
2019-04-13T23:56:49.885Z,5.20
2019-04-13T23:59:29.017Z,5.20
